Time;durP1;ratioP1;P1;durP2;ratioP2;P2;SDS_P1;SDS_P2;PMS_P1;PMS_P2;Temp;Humidity;BMP_temperature;BMP_pressure;BME280_temperature;BME280_humidity;BME280_pressure;Samples;Min_cycle;Max_cycle;Signal;HPM_P1;HPM_P2
2023/07/22 00:00:45;;;;;;;12.25;7.72;;;13.80;99.90;;;;;;4848749;28;89320;-34
2023/07/22 00:03:11;;;;;;;10.20;7.82;;;13.80;99.90;;;;;;4845170;28;91025;-37
2023/07/22 00:05:37;;;;;;;10.40;8.73;;;13.70;99.90;;;;;;4845864;28;89089;-33
2023/07/22 00:08:03;;;;;;;11.63;7.50;;;13.60;99.90;;;;;;4844719;28;90013;-38
2023/07/22 00:10:29;;;;;;;9.93;7.82;;;13.60;99.90;;;;;;4858062;28;90007;-35
2023/07/22 00:12:54;;;;;;;15.35;8.95;;;13.60;99.90;;;;;;4864338;28;89330;-41
2023/07/22 00:15:22;;;;;;;13.70;9.13;;;13.60;99.90;;;;;;4863598;28;89972;-38
2023/07/22 00:17:48;;;;;;;10.90;8.50;;;13.50;99.90;;;;;;4855160;28;89330;-45
2023/07/22 00:20:16;;;;;;;14.55;8.77;;;13.50;99.90;;;;;;4847843;28;89709;-35
2023/07/22 00:22:42;;;;;;;13.35;8.80;;;13.50;99.90;;;;;;4858585;28;90561;-36
2023/07/22 00:25:10;;;;;;;10.55;7.50;;;13.40;99.90;;;;;;4856795;28;90223;-34
2023/07/22 00:27:40;;;;;;;9.70;7.50;;;13.40;99.90;;;;;;4862441;28;88720;-36
2023/07/22 00:30:06;;;;;;;13.55;8.73;;;13.40;99.90;;;;;;4861857;28;90680;-37
2023/07/22 00:32:32;;;;;;;15.85;8.95;;;13.40;99.90;;;;;;4864094;28;90307;-33
2023/07/22 00:34:58;;;;;;;11.77;8.23;;;13.40;99.90;;;;;;4861723;28;89515;-40
2023/07/22 00:37:25;;;;;;;14.07;9.73;;;13.40;99.90;;;;;;4862269;28;90504;-35
2023/07/22 00:39:51;;;;;;;16.77;9.57;;;13.40;99.90;;;;;;4860076;28;90982;-40
2023/07/22 00:42:16;;;;;;;10.35;8.82;;;13.40;99.90;;;;;;4861755;28;90214;-34
2023/07/22 00:44:42;;;;;;;12.55;8.80;;;13.40;99.90;;;;;;4861164;28;89778;-40
2023/07/22 00:47:08;;;;;;;14.43;9.32;;;13.40;99.90;;;;;;4843757;28;88094;-40
2023/07/22 00:49:35;;;;;;;14.18;8.90;;;13.30;99.90;;;;;;4846291;28;90565;-45
2023/07/22 00:52:02;;;;;;;13.05;9.75;;;13.20;99.90;;;;;;4855701;28;89760;-32
2023/07/22 00:54:29;;;;;;;15.65;10.00;;;13.20;99.90;;;;;;4844778;28;89888;-37
2023/07/22 00:56:56;;;;;;;13.60;8.90;;;13.20;99.90;;;;;;4852786;28;88844;-41
2023/07/22 00:59:23;;;;;;;15.43;8.88;;;13.20;99.90;;;;;;4850710;28;90308;-35
2023/07/22 01:01:48;;;;;;;11.45;8.52;;;13.10;99.90;;;;;;4863327;28;89973;-39
2023/07/22 01:04:16;;;;;;;14.52;9.50;;;13.10;99.90;;;;;;4844166;28;89358;-45
2023/07/22 01:06:43;;;;;;;11.53;8.10;;;13.10;99.90;;;;;;4857198;28;89235;-40
2023/07/22 01:09:09;;;;;;;14.45;9.75;;;13.10;99.90;;;;;;4851524;28;90760;-31
2023/07/22 01:11:35;;;;;;;14.85;9.27;;;13.10;99.90;;;;;;4859681;28;90614;-34
2023/07/22 01:14:01;;;;;;;9.38;8.35;;;13.00;99.90;;;;;;4863132;28;90461;-36
2023/07/22 01:16:28;;;;;;;11.45;8.73;;;13.10;99.90;;;;;;4862500;28;88130;-37
2023/07/22 01:18:54;;;;;;;13.95;10.27;;;13.00;99.90;;;;;;4861980;28;89597;-35
2023/07/22 01:21:22;;;;;;;16.15;9.60;;;13.00;99.90;;;;;;4860650;28;89308;-33
2023/07/22 01:23:48;;;;;;;13.38;9.38;;;13.00;99.90;;;;;;4862270;28;89483;-35
2023/07/22 01:26:14;;;;;;;14.38;9.63;;;13.10;99.90;;;;;;4860454;28;89671;-34
2023/07/22 01:28:40;;;;;;;13.02;9.13;;;13.00;99.90;;;;;;4862576;28;90496;-39
2023/07/22 01:31:05;;;;;;;14.90;9.43;;;13.00;99.90;;;;;;4853223;28;89933;-38
2023/07/22 01:33:32;;;;;;;14.88;9.63;;;13.00;99.90;;;;;;4844161;28;89563;-36
2023/07/22 01:35:58;;;;;;;16.17;10.85;;;13.00;99.90;;;;;;4844472;28;89182;-32
2023/07/22 01:38:23;;;;;;;12.93;10.02;;;12.90;99.90;;;;;;4842666;28;89991;-40
2023/07/22 01:40:49;;;;;;;17.70;10.45;;;12.90;99.90;;;;;;4843839;28;90032;-34
2023/07/22 01:43:15;;;;;;;14.40;9.57;;;12.90;99.90;;;;;;4855907;28;89953;-42
2023/07/22 01:45:41;;;;;;;18.58;10.38;;;12.90;99.90;;;;;;4845043;28;88503;-38
2023/07/22 01:48:07;;;;;;;13.32;9.07;;;12.90;99.90;;;;;;4842027;28;90334;-34
2023/07/22 01:50:32;;;;;;;12.05;9.52;;;12.90;99.90;;;;;;4842541;28;91225;-33
2023/07/22 01:52:58;;;;;;;17.60;10.27;;;12.80;99.90;;;;;;4844510;28;88892;-33
2023/07/22 01:55:24;;;;;;;15.65;9.50;;;12.80;99.90;;;;;;4843707;28;89083;-38
2023/07/22 01:57:49;;;;;;;17.45;8.80;;;12.80;99.90;;;;;;4844181;28;90338;-45
2023/07/22 02:00:15;;;;;;;13.63;9.55;;;12.80;99.90;;;;;;4843049;28;90766;-38
2023/07/22 02:02:44;;;;;;;13.25;10.52;;;12.80;99.90;;;;;;4860372;28;90388;-40
2023/07/22 02:05:10;;;;;;;14.98;10.52;;;12.80;99.90;;;;;;4861087;28;88270;-36
2023/07/22 02:07:36;;;;;;;14.68;10.98;;;12.80;99.90;;;;;;4861415;28;89138;-34
2023/07/22 02:10:02;;;;;;;15.32;9.60;;;12.70;99.90;;;;;;4861484;28;88785;-33
2023/07/22 02:12:27;;;;;;;17.38;10.77;;;12.70;99.90;;;;;;4861820;28;89027;-39
2023/07/22 02:14:53;;;;;;;11.60;8.63;;;12.70;99.90;;;;;;4860657;28;89599;-37
2023/07/22 02:17:20;;;;;;;15.75;10.00;;;12.70;99.90;;;;;;4861736;28;90585;-37
2023/07/22 02:19:46;;;;;;;14.18;9.55;;;12.70;99.90;;;;;;4861866;28;89828;-42
2023/07/22 02:22:12;;;;;;;13.15;9.50;;;12.60;99.90;;;;;;4861483;28;89689;-34
2023/07/22 02:24:38;;;;;;;13.00;9.63;;;12.60;99.90;;;;;;4861443;28;90461;-46
2023/07/22 02:27:04;;;;;;;15.75;10.77;;;12.50;99.90;;;;;;4862574;28;92269;-34
2023/07/22 02:29:31;;;;;;;14.70;9.75;;;12.50;99.90;;;;;;4860458;28;89602;-33
2023/07/22 02:31:57;;;;;;;16.38;11.40;;;12.60;99.90;;;;;;4860804;28;89522;-35
2023/07/22 02:34:23;;;;;;;15.73;10.43;;;12.60;99.90;;;;;;4861501;28;89144;-42
2023/07/22 02:36:49;;;;;;;15.27;10.88;;;12.60;99.90;;;;;;4860645;28;89621;-35
2023/07/22 02:39:14;;;;;;;12.15;10.32;;;12.50;99.90;;;;;;4861054;28;89698;-43
2023/07/22 02:41:40;;;;;;;17.48;10.55;;;12.50;99.90;;;;;;4860014;28;90196;-39
2023/07/22 02:44:05;;;;;;;14.82;9.95;;;12.50;99.90;;;;;;4861136;28;88765;-39
2023/07/22 02:46:31;;;;;;;20.55;10.93;;;12.50;99.90;;;;;;4861392;28;91441;-36
2023/07/22 02:48:58;;;;;;;18.60;11.50;;;12.50;99.90;;;;;;4860941;28;90566;-34
2023/07/22 02:51:24;;;;;;;14.68;10.73;;;12.50;99.90;;;;;;4861086;28;88847;-36
2023/07/22 02:53:50;;;;;;;17.20;9.57;;;12.50;99.90;;;;;;4860398;28;89174;-34
2023/07/22 02:56:16;;;;;;;15.93;10.80;;;12.50;99.90;;;;;;4861491;28;90348;-36
2023/07/22 02:58:41;;;;;;;17.80;11.55;;;12.40;99.90;;;;;;4861445;28;89410;-38
2023/07/22 03:01:08;;;;;;;13.75;11.02;;;12.50;99.90;;;;;;4860017;28;89000;-39
2023/07/22 03:03:34;;;;;;;13.88;10.32;;;12.50;99.90;;;;;;4860131;28;89448;-40
2023/07/22 03:06:01;;;;;;;18.25;10.98;;;12.50;99.90;;;;;;4842553;28;92278;-33
2023/07/22 03:08:27;;;;;;;12.02;10.13;;;12.50;99.90;;;;;;4842627;28;89444;-37
2023/07/22 03:10:53;;;;;;;13.63;10.88;;;12.50;99.90;;;;;;4842912;28;90194;-32
2023/07/22 03:13:19;;;;;;;16.55;11.13;;;12.50;99.90;;;;;;4855492;28;89793;-39
2023/07/22 03:15:44;;;;;;;20.55;11.15;;;12.40;99.90;;;;;;4853408;28;90215;-35
2023/07/22 03:18:11;;;;;;;19.55;10.57;;;12.40;99.90;;;;;;4842960;28;89139;-37
2023/07/22 03:20:37;;;;;;;12.93;10.40;;;12.40;99.90;;;;;;4861079;28;90044;-34
2023/07/22 03:23:05;;;;;;;19.52;11.05;;;12.50;99.90;;;;;;4859054;28;87708;-34
2023/07/22 03:25:32;;;;;;;16.13;11.13;;;12.40;99.90;;;;;;4842703;28;90045;-31
2023/07/22 03:27:59;;;;;;;15.25;10.40;;;12.40;99.90;;;;;;4840768;28;89126;-35
2023/07/22 03:30:24;;;;;;;16.60;11.02;;;12.40;99.90;;;;;;4854266;28;88521;-34
2023/07/22 03:32:50;;;;;;;17.05;11.10;;;12.40;99.90;;;;;;4854551;28;89676;-31
2023/07/22 03:35:18;;;;;;;20.75;10.20;;;12.40;99.90;;;;;;4854732;28;91753;-32
2023/07/22 03:37:44;;;;;;;;;;;12.40;99.90;;;;;;4853288;28;90818;-45
2023/07/22 03:40:19;;;;;;;16.20;11.88;;;12.40;99.90;;;;;;4856605;28;89818;-30
2023/07/22 03:42:47;;;;;;;17.60;10.40;;;12.30;99.90;;;;;;4856862;28;88922;-32
2023/07/22 03:45:13;;;;;;;18.90;12.73;;;12.30;99.90;;;;;;4859122;28;90308;-34
2023/07/22 03:47:39;;;;;;;19.15;10.82;;;12.40;99.90;;;;;;4855894;28;90062;-38
2023/07/22 03:50:05;;;;;;;21.85;12.07;;;12.40;99.90;;;;;;4859411;28;89823;-34
2023/07/22 03:52:31;;;;;;;16.58;10.90;;;12.40;99.90;;;;;;4855094;28;89338;-35
2023/07/22 03:54:57;;;;;;;17.92;12.20;;;12.40;99.90;;;;;;4863819;28;90263;-39
2023/07/22 03:57:29;;;;;;;17.88;11.63;;;12.50;99.90;;;;;;4854351;28;89673;-46
2023/07/22 03:59:56;;;;;;;10.15;6.20;;;12.50;99.90;;;;;;4859551;28;90522;-36
2023/07/22 04:02:21;;;;;;;21.60;13.57;;;12.50;99.90;;;;;;4859752;28;89071;-37
2023/07/22 04:04:47;;;;;;;21.38;11.48;;;12.50;99.90;;;;;;4860382;28;90684;-32
2023/07/22 04:07:13;;;;;;;17.27;11.98;;;12.50;99.90;;;;;;4858142;28;89799;-31
2023/07/22 04:09:39;;;;;;;19.60;11.90;;;12.60;99.90;;;;;;4863951;28;89449;-40
2023/07/22 04:12:05;;;;;;;21.58;13.18;;;12.60;99.90;;;;;;4861566;28;88928;-42
2023/07/22 04:14:30;;;;;;;21.65;12.63;;;12.60;99.90;;;;;;4861714;28;89420;-39
2023/07/22 04:16:57;;;;;;;22.83;13.48;;;12.60;99.90;;;;;;4859259;28;90115;-34
2023/07/22 04:19:22;;;;;;;20.02;12.35;;;12.60;99.90;;;;;;4860835;28;90181;-38
2023/07/22 04:21:48;;;;;;;18.70;12.57;;;12.70;99.90;;;;;;4859271;28;89220;-38
2023/07/22 04:24:14;;;;;;;17.23;12.07;;;12.70;99.90;;;;;;4860743;28;89667;-40
2023/07/22 04:26:42;;;;;;;17.33;12.40;;;12.70;99.90;;;;;;4860653;28;90107;-37
2023/07/22 04:29:09;;;;;;;19.85;14.20;;;12.80;99.90;;;;;;4860361;28;90051;-35
2023/07/22 04:31:34;;;;;;;17.05;11.05;;;12.90;99.90;;;;;;4863683;28;89347;-41
2023/07/22 04:34:00;;;;;;;17.27;12.30;;;12.90;99.90;;;;;;4855904;28;90632;-35
2023/07/22 04:36:26;;;;;;;16.00;11.77;;;13.00;99.90;;;;;;4857923;28;89823;-38
2023/07/22 04:38:52;;;;;;;22.00;13.15;;;12.90;99.90;;;;;;4862763;28;89551;-42
2023/07/22 04:41:18;;;;;;;17.80;13.57;;;13.00;99.90;;;;;;4863081;28;88732;-37
2023/07/22 04:43:43;;;;;;;15.43;11.30;;;13.00;99.90;;;;;;4863330;28;89333;-33
2023/07/22 04:46:09;;;;;;;18.77;14.38;;;13.10;99.90;;;;;;4862785;28;90118;-43
2023/07/22 04:48:36;;;;;;;20.92;13.45;;;13.20;99.90;;;;;;4863430;28;89734;-39
2023/07/22 04:51:02;;;;;;;16.57;12.77;;;13.30;99.90;;;;;;4849325;28;90444;-39
2023/07/22 04:53:28;;;;;;;16.90;12.80;;;13.40;99.90;;;;;;4853840;28;91405;-36
2023/07/22 04:55:55;;;;;;;20.50;13.40;;;13.40;99.90;;;;;;4844981;28;91082;-34
2023/07/22 04:58:21;;;;;;;23.60;14.77;;;13.40;99.90;;;;;;4844136;28;89370;-37
2023/07/22 05:00:46;;;;;;;18.20;13.35;;;13.50;99.90;;;;;;4849911;28;89662;-37
2023/07/22 05:03:13;;;;;;;16.73;12.13;;;13.40;99.90;;;;;;4860861;28;90307;-33
2023/07/22 05:05:39;;;;;;;17.63;12.40;;;13.50;99.90;;;;;;4860126;28;88937;-36
2023/07/22 05:08:04;;;;;;;20.88;12.77;;;13.50;99.90;;;;;;4861632;28;89727;-39
2023/07/22 05:10:30;;;;;;;21.00;13.30;;;13.50;99.90;;;;;;4861047;28;89730;-36
2023/07/22 05:12:57;;;;;;;18.02;12.07;;;13.60;99.90;;;;;;4862003;28;90157;-36
2023/07/22 05:15:23;;;;;;;20.35;13.38;;;13.60;99.90;;;;;;4858842;28;90540;-39
2023/07/22 05:17:48;;;;;;;16.88;12.25;;;13.70;99.90;;;;;;4861021;28;90489;-33
2023/07/22 05:20:14;;;;;;;16.67;12.27;;;13.70;99.90;;;;;;4859386;28;89468;-39
2023/07/22 05:22:40;;;;;;;18.05;12.23;;;13.70;99.90;;;;;;4861418;28;90187;-35
2023/07/22 05:25:06;;;;;;;15.57;12.48;;;13.70;99.90;;;;;;4859262;28;89327;-40
2023/07/22 05:27:33;;;;;;;17.65;13.18;;;13.70;99.90;;;;;;4861397;28;89486;-31
2023/07/22 05:29:58;;;;;;;14.48;12.25;;;13.70;99.90;;;;;;4861440;28;89375;-44
2023/07/22 05:32:24;;;;;;;20.40;13.73;;;13.70;99.90;;;;;;4855921;28;90442;-34
2023/07/22 05:34:50;;;;;;;15.27;11.15;;;13.70;99.90;;;;;;4843716;28;91400;-35
2023/07/22 05:37:15;;;;;;;18.73;12.20;;;13.70;99.90;;;;;;4843800;28;89543;-34
2023/07/22 05:39:41;;;;;;;16.88;11.68;;;13.70;99.90;;;;;;4856902;28;88764;-33
2023/07/22 05:42:06;;;;;;;14.55;10.65;;;13.80;99.90;;;;;;4854275;28;90999;-38
2023/07/22 05:44:32;;;;;;;22.40;11.32;;;13.70;99.90;;;;;;4842923;28;91540;-38
2023/07/22 05:46:58;;;;;;;12.73;10.77;;;13.80;99.90;;;;;;4843974;28;89627;-36
2023/07/22 05:49:24;;;;;;;19.40;12.25;;;13.80;99.90;;;;;;4855062;28;88147;-36
2023/07/22 05:51:49;;;;;;;17.15;11.88;;;13.80;99.90;;;;;;4844058;28;91867;-34
2023/07/22 05:54:15;;;;;;;15.93;10.70;;;13.80;99.90;;;;;;4855503;28;89004;-43
2023/07/22 05:56:41;;;;;;;17.00;12.00;;;13.80;99.90;;;;;;4844161;28;89659;-32
2023/07/22 05:59:07;;;;;;;18.35;12.15;;;13.80;99.90;;;;;;4844237;28;90044;-41
2023/07/22 06:01:32;;;;;;;21.08;12.27;;;13.80;99.90;;;;;;4853798;28;90724;-34
2023/07/22 06:03:58;;;;;;;22.77;12.13;;;13.80;99.90;;;;;;4861557;28;91340;-38
2023/07/22 06:06:24;;;;;;;20.80;12.00;;;13.80;99.90;;;;;;4860373;28;90558;-37
2023/07/22 06:08:50;;;;;;;13.98;11.25;;;13.80;99.90;;;;;;4861714;28;89447;-35
2023/07/22 06:11:15;;;;;;;15.60;11.77;;;13.90;99.90;;;;;;4861180;28;89939;-34
2023/07/22 06:13:41;;;;;;;17.13;11.73;;;13.90;99.90;;;;;;4852679;28;89957;-35
2023/07/22 06:16:07;;;;;;;19.90;12.55;;;13.90;99.90;;;;;;4851517;28;90209;-36
2023/07/22 06:18:32;;;;;;;18.15;12.52;;;13.90;99.90;;;;;;4852420;28;88516;-45
2023/07/22 06:20:58;;;;;;;17.52;11.05;;;13.90;99.90;;;;;;4852595;28;90084;-39
2023/07/22 06:23:24;;;;;;;16.50;12.45;;;13.90;99.90;;;;;;4847684;28;89332;-44
2023/07/22 06:25:49;;;;;;;17.42;12.70;;;14.00;99.90;;;;;;4845551;28;90150;-34
2023/07/22 06:28:15;;;;;;;20.15;13.10;;;13.90;99.90;;;;;;4847392;28;90016;-38
2023/07/22 06:30:40;;;;;;;17.83;11.80;;;14.00;99.90;;;;;;4859526;28;90767;-38
2023/07/22 06:33:06;;;;;;;16.88;12.98;;;14.00;99.90;;;;;;4858483;28;89799;-37
2023/07/22 06:35:32;;;;;;;17.42;13.52;;;14.00;99.90;;;;;;4840719;28;90017;-41
2023/07/22 06:37:57;;;;;;;15.13;12.38;;;14.00;99.90;;;;;;4856029;28;89550;-38
2023/07/22 06:40:24;;;;;;;18.77;13.05;;;14.10;99.90;;;;;;4846730;28;90059;-42
2023/07/22 06:42:50;;;;;;;16.13;12.95;;;14.10;99.90;;;;;;4857846;28;90113;-38
2023/07/22 06:45:16;;;;;;;20.88;14.32;;;14.20;99.90;;;;;;4852265;28;89628;-36
2023/07/22 06:47:42;;;;;;;22.23;14.68;;;14.20;99.90;;;;;;4841492;28;88742;-35
2023/07/22 06:50:07;;;;;;;20.30;13.25;;;14.30;99.90;;;;;;4863052;28;92002;-34
2023/07/22 06:52:33;;;;;;;17.83;12.95;;;14.40;99.90;;;;;;4846138;28;90723;-32
2023/07/22 06:54:59;;;;;;;23.55;16.10;;;14.50;99.90;;;;;;4841397;28;89974;-37
2023/07/22 06:57:26;;;;;;;21.15;14.27;;;14.60;99.90;;;;;;4842505;28;88795;-42
2023/07/22 06:59:53;;;;;;;21.50;14.77;;;14.80;99.90;;;;;;4860043;28;90777;-34
2023/07/22 07:02:19;;;;;;;23.10;15.60;;;14.90;99.90;;;;;;4859683;28;89555;-38
2023/07/22 07:04:45;;;;;;;20.60;15.00;;;15.10;99.90;;;;;;4847838;28;90347;-36
2023/07/22 07:07:12;;;;;;;18.90;13.98;;;15.20;99.90;;;;;;4841523;28;88295;-37
2023/07/22 07:09:38;;;;;;;22.52;16.58;;;15.40;99.90;;;;;;4841505;28;90287;-36
2023/07/22 07:12:04;;;;;;;28.23;16.90;;;15.50;99.90;;;;;;4843569;28;90118;-33
2023/07/22 07:14:30;;;;;;;22.17;17.10;;;15.60;99.90;;;;;;4841453;28;89281;-37
2023/07/22 07:16:55;;;;;;;22.85;17.60;;;15.60;99.90;;;;;;4856278;28;89461;-37
2023/07/22 07:19:21;;;;;;;22.67;16.98;;;15.60;99.90;;;;;;4859968;28;90613;-33
2023/07/22 07:21:47;;;;;;;29.60;19.13;;;15.60;99.90;;;;;;4860899;28;90013;-42
2023/07/22 07:24:13;;;;;;;22.27;17.10;;;15.70;99.90;;;;;;4860879;28;89934;-36
2023/07/22 07:26:38;;;;;;;24.50;17.70;;;15.80;99.90;;;;;;4860924;28;89355;-38
2023/07/22 07:29:04;;;;;;;20.67;17.33;;;15.90;99.90;;;;;;4860232;28;89089;-33
2023/07/22 07:31:30;;;;;;;18.60;14.85;;;16.00;99.90;;;;;;4854297;28;89523;-43
2023/07/22 07:33:55;;;;;;;21.23;15.95;;;16.10;99.90;;;;;;4862559;28;88986;-37
2023/07/22 07:36:21;;;;;;;18.52;15.73;;;16.20;99.90;;;;;;4855902;28;89505;-34
2023/07/22 07:38:47;;;;;;;23.77;16.27;;;16.30;99.90;;;;;;4861494;28;89957;-41
2023/07/22 07:41:13;;;;;;;20.38;16.08;;;16.30;99.90;;;;;;4848386;28;90331;-39
2023/07/22 07:43:40;;;;;;;21.63;15.60;;;16.30;99.90;;;;;;4854622;28;90257;-36
2023/07/22 07:46:23;;;;;;;19.33;14.50;;;16.50;99.90;;;;;;4856877;28;88276;-38
2023/07/22 07:48:50;;;;;;;23.27;16.02;;;16.50;99.90;;;;;;4851417;28;90248;-34
2023/07/22 07:51:17;;;;;;;20.73;14.65;;;16.40;99.90;;;;;;4852573;28;89119;-45
2023/07/22 07:53:44;;;;;;;23.60;15.60;;;16.60;99.90;;;;;;4850930;28;89864;-34
2023/07/22 07:56:10;;;;;;;24.98;16.98;;;16.70;99.90;;;;;;4852493;28;88608;-35
2023/07/22 07:58:37;;;;;;;21.75;16.75;;;16.90;99.90;;;;;;4854763;28;89771;-38
2023/07/22 08:01:03;;;;;;;26.70;16.73;;;17.00;99.90;;;;;;4861787;28;88868;-36
2023/07/22 08:03:28;;;;;;;26.02;17.30;;;17.20;99.90;;;;;;4848393;28;89361;-39
2023/07/22 08:05:54;;;;;;;20.58;16.55;;;17.20;99.90;;;;;;4842934;28;89401;-36
2023/07/22 08:08:21;;;;;;;22.27;15.32;;;17.20;99.90;;;;;;4919544;23;91706;-38
2023/07/22 08:10:48;;;;;;;21.67;14.70;;;17.60;99.90;;;;;;4898753;28;89751;-40
2023/07/22 08:13:14;;;;;;;20.33;15.93;;;17.80;99.90;;;;;;4899386;28;89385;-39
2023/07/22 08:15:41;;;;;;;21.27;14.82;;;17.60;99.90;;;;;;4902103;28;89437;-37
2023/07/22 08:18:07;;;;;;;22.25;15.23;;;17.70;99.90;;;;;;4901364;28;89729;-40
2023/07/22 08:20:33;;;;;;;20.83;14.18;;;17.80;99.90;;;;;;4894161;28;89995;-41
2023/07/22 08:22:58;;;;;;;18.75;14.07;;;17.90;99.90;;;;;;4897708;28;89017;-34
2023/07/22 08:25:24;;;;;;;17.92;14.35;;;17.80;99.90;;;;;;4900139;28;90614;-44
2023/07/22 08:27:49;;;;;;;24.25;14.50;;;17.80;99.90;;;;;;4900080;28;90400;-38
2023/07/22 08:30:15;;;;;;;20.00;14.30;;;18.00;99.90;;;;;;4898585;28;91418;-43
2023/07/22 08:32:41;;;;;;;19.33;14.52;;;18.10;99.90;;;;;;4901742;28;91526;-35
2023/07/22 08:35:07;;;;;;;21.88;13.35;;;17.90;99.90;;;;;;4899840;28;88820;-35
2023/07/22 08:37:32;;;;;;;15.43;11.85;;;18.00;99.90;;;;;;4901434;28;90179;-37
2023/07/22 08:39:58;;;;;;;15.02;13.05;;;18.20;99.90;;;;;;4897587;28;89626;-36
2023/07/22 08:42:25;;;;;;;20.70;13.50;;;18.40;99.90;;;;;;4892950;28;90214;-34
2023/07/22 08:44:56;;;;;;;19.67;13.02;;;18.50;99.90;;;;;;4900274;28;88832;-39
2023/07/22 08:47:25;;;;;;;19.42;14.27;;;18.40;99.90;;;;;;4901264;28;90934;-43
2023/07/22 08:49:55;;;;;;;14.98;11.75;;;18.40;99.90;;;;;;4899964;28;89189;-36
2023/07/22 08:52:22;;;;;;;16.73;13.07;;;18.40;99.90;;;;;;4901746;28;91028;-34
2023/07/22 08:54:49;;;;;;;15.48;11.25;;;18.40;99.90;;;;;;4901122;28;89535;-34
2023/07/22 08:57:15;;;;;;;17.63;11.67;;;18.60;99.90;;;;;;4898792;28;91218;-38
2023/07/22 08:59:42;;;;;;;14.43;10.80;;;18.30;99.90;;;;;;4889403;28;90308;-38
2023/07/22 09:02:13;;;;;;;18.52;10.82;;;18.40;99.90;;;;;;4898980;28;90994;-34
2023/07/22 09:04:40;;;;;;;15.38;10.30;;;18.50;99.90;;;;;;4902350;28;89529;-34
2023/07/22 09:07:07;;;;;;;17.60;11.02;;;18.40;99.90;;;;;;4899899;28;90403;-38
2023/07/22 09:09:34;;;;;;;15.57;9.70;;;18.40;99.90;;;;;;4900797;28;89465;-34
2023/07/22 09:12:01;;;;;;;18.40;11.65;;;18.20;99.90;;;;;;4901651;28;89744;-39
2023/07/22 09:14:28;;;;;;;15.38;10.20;;;18.30;99.90;;;;;;4901290;28;89524;-39
2023/07/22 09:16:54;;;;;;;12.63;8.33;;;18.30;99.90;;;;;;4900359;28;92093;-37
2023/07/22 09:19:20;;;;;;;10.65;8.68;;;18.10;99.90;;;;;;4900892;28;90834;-35
2023/07/22 09:21:45;;;;;;;12.32;9.80;;;18.10;99.90;;;;;;4901047;28;89723;-39
2023/07/22 09:24:27;;;;;;;13.07;10.40;;;18.20;99.90;;;;;;4900894;28;87766;-33
2023/07/22 09:26:53;;;;;;;10.40;8.68;;;18.10;99.90;;;;;;4889199;28;90120;-34
2023/07/22 09:29:36;;;;;;;11.93;10.57;;;18.20;99.90;;;;;;4900626;28;90116;-37
2023/07/22 09:32:03;;;;;;;12.23;8.95;;;18.20;99.90;;;;;;4899217;28;89400;-34
2023/07/22 09:34:29;;;;;;;10.20;8.43;;;18.20;99.90;;;;;;4900820;28;87739;-33
2023/07/22 09:37:03;;;;;;;11.48;8.82;;;18.20;99.90;;;;;;4888450;28;90319;-37
2023/07/22 09:39:29;;;;;;;12.32;8.73;;;18.20;99.90;;;;;;4898731;28;89963;-38
2023/07/22 09:41:55;;;;;;;15.38;8.65;;;18.10;99.90;;;;;;4898456;28;88458;-42
2023/07/22 09:44:21;;;;;;;13.38;9.45;;;18.10;99.90;;;;;;4899135;28;90135;-38
2023/07/22 09:46:48;;;;;;;10.93;7.32;;;18.00;99.90;;;;;;4897711;28;90002;-38
2023/07/22 09:49:17;;;;;;;11.13;8.30;;;18.10;99.90;;;;;;4898816;28;90550;-33
2023/07/22 09:51:42;;;;;;;;;;;17.80;99.90;;;;;;4899065;28;89873;-38
2023/07/22 09:54:08;;;;;;;12.85;8.05;;;17.70;99.90;;;;;;4899824;28;89977;-33
2023/07/22 09:56:45;;;;;;;12.48;7.90;;;17.60;99.90;;;;;;4898483;28;90336;-39
2023/07/22 09:59:11;;;;;;;10.27;7.33;;;17.60;99.90;;;;;;4898426;28;89995;-36
2023/07/22 10:01:41;;;;;;;8.48;7.03;;;17.50;99.90;;;;;;4898701;28;90249;-33
2023/07/22 10:04:08;;;;;;;8.38;7.10;;;17.40;99.90;;;;;;4898276;28;90009;-33
2023/07/22 10:06:34;;;;;;;11.45;7.72;;;17.50;99.90;;;;;;4898228;28;90498;-42
2023/07/22 10:09:07;;;;;;;9.57;5.70;;;17.40;99.90;;;;;;4898832;28;90828;-41
2023/07/22 10:11:32;;;;;;;5.95;5.32;;;17.30;99.90;;;;;;4898721;28;88786;-36
2023/07/22 10:13:58;;;;;;;6.32;5.07;;;17.40;99.90;;;;;;4899317;28;89263;-35
2023/07/22 10:16:24;;;;;;;4.85;3.78;;;17.50;99.90;;;;;;4897384;28;90184;-33
2023/07/22 10:18:51;;;;;;;4.88;3.78;;;17.40;99.90;;;;;;4888017;28;89670;-35
2023/07/22 10:21:17;;;;;;;5.50;4.28;;;17.40;99.90;;;;;;4897684;28;89837;-33
2023/07/22 10:23:45;;;;;;;6.28;4.93;;;17.50;99.90;;;;;;4898494;28;89134;-34
2023/07/22 10:26:13;;;;;;;;;;;17.70;99.90;;;;;;4895955;28;90294;-41
2023/07/22 10:28:40;;;;;;;8.13;4.68;;;17.80;99.90;;;;;;4897665;28;89596;-38
2023/07/22 10:31:06;;;;;;;6.40;5.32;;;17.90;99.90;;;;;;4898501;28;89691;-37
2023/07/22 10:33:34;;;;;;;7.35;5.53;;;17.90;99.90;;;;;;4897769;28;89107;-36
2023/07/22 10:36:03;;;;;;;9.20;5.00;;;17.90;99.90;;;;;;4898137;28;90851;-36
2023/07/22 10:38:29;;;;;;;5.93;5.32;;;17.90;99.90;;;;;;4897866;28;89912;-35
2023/07/22 10:40:55;;;;;;;6.15;5.40;;;18.00;99.90;;;;;;4898481;28;89732;-33
2023/07/22 10:43:33;;;;;;;6.70;5.50;;;18.10;99.90;;;;;;4898242;28;88837;-36
2023/07/22 10:46:06;;;;;;;;;;;18.10;99.90;;;;;;4898691;28;89176;-42
2023/07/22 10:48:37;;;;;;;7.10;6.40;;;18.00;99.90;;;;;;4899839;28;89950;-38
2023/07/22 10:51:21;;;;;;;6.85;6.15;;;17.90;99.90;;;;;;4898516;28;90904;-34
2023/07/22 10:53:48;;;;;;;5.57;4.88;;;18.00;99.90;;;;;;4901748;28;88911;-38
2023/07/22 10:56:20;;;;;;;5.03;4.57;;;18.00;99.90;;;;;;4902021;28;89335;-35
2023/07/22 10:58:46;;;;;;;6.57;5.25;;;18.00;99.90;;;;;;4901322;28;90545;-38
2023/07/22 11:01:29;;;;;;;5.32;4.82;;;18.00;99.90;;;;;;4900977;28;89421;-35
2023/07/22 11:04:17;;;;;;;6.32;5.72;;;18.00;99.90;;;;;;4899895;28;89564;-36
2023/07/22 11:06:48;;;;;;;5.80;5.25;;;18.00;99.90;;;;;;4894710;28;90698;-32
2023/07/22 11:09:29;;;;;;;5.65;4.90;;;18.00;99.90;;;;;;4901473;28;89705;-33
2023/07/22 11:12:00;;;;;;;6.03;5.13;;;17.90;99.90;;;;;;4901098;28;90523;-36
2023/07/22 11:14:29;;;;;;;6.00;5.40;;;17.90;99.90;;;;;;4895026;28;89247;-37
2023/07/22 11:16:57;;;;;;;6.28;5.68;;;17.90;99.90;;;;;;4901950;28;90108;-40
2023/07/22 11:19:24;;;;;;;;;;;17.80;99.90;;;;;;4901232;28;89635;-42
2023/07/22 11:21:51;;;;;;;7.25;6.55;;;17.80;99.90;;;;;;4902513;28;89172;-34
2023/07/22 11:24:18;;;;;;;6.68;5.90;;;17.70;99.90;;;;;;4900898;28;89923;-38
2023/07/22 11:26:48;;;;;;;11.63;6.35;;;17.60;99.90;;;;;;4900904;28;90438;-35
2023/07/22 11:29:15;;;;;;;10.27;7.47;;;17.50;99.90;;;;;;4894738;28;90044;-42
2023/07/22 11:31:44;;;;;;;9.82;8.00;;;17.60;99.90;;;;;;4899739;28;90788;-32
2023/07/22 11:34:10;;;;;;;8.27;6.75;;;17.60;99.90;;;;;;4900219;28;88887;-33
2023/07/22 11:36:35;;;;;;;10.40;6.97;;;17.50;99.90;;;;;;4901343;28;89928;-35
2023/07/22 11:39:07;;;;;;;9.27;6.97;;;17.50;99.90;;;;;;4900484;28;89709;-35
2023/07/22 11:41:34;;;;;;;7.80;7.00;;;17.30;99.90;;;;;;4901062;28;89463;-36
2023/07/22 11:44:01;;;;;;;8.55;6.72;;;17.30;99.90;;;;;;4893713;28;88861;-39
2023/07/22 11:46:28;;;;;;;8.65;7.78;;;17.30;99.90;;;;;;4899629;28;90011;-34
2023/07/22 11:48:54;;;;;;;9.75;8.85;;;17.30;99.90;;;;;;4900438;28;90481;-40
2023/07/22 11:51:22;;;;;;;10.43;9.10;;;17.20;99.90;;;;;;4900283;28;90702;-36
2023/07/22 11:53:50;;;;;;;11.10;10.00;;;17.10;99.90;;;;;;4900538;28;89088;-32
2023/07/22 11:56:27;;;;;;;12.30;10.50;;;17.10;99.90;;;;;;4900250;28;88998;-38
2023/07/22 11:58:55;;;;;;;11.55;9.63;;;16.90;99.90;;;;;;4900086;28;90251;-41
2023/07/22 12:01:22;;;;;;;8.70;7.90;;;16.70;99.90;;;;;;4900853;28;89957;-33
2023/07/22 12:03:48;;;;;;;9.30;8.10;;;16.60;99.90;;;;;;4898870;28;89299;-40
2023/07/22 12:06:15;;;;;;;9.68;8.52;;;16.60;99.90;;;;;;4898535;28;90599;-45
2023/07/22 12:08:46;;;;;;;8.80;7.90;;;16.60;99.90;;;;;;4899979;28;90113;-37
2023/07/22 12:11:18;;;;;;;11.65;8.50;;;16.60;99.90;;;;;;4900176;28;89625;-35
2023/07/22 12:13:50;;;;;;;8.30;7.45;;;16.60;99.90;;;;;;4898153;28;90637;-46
2023/07/22 12:16:22;;;;;;;8.10;7.30;;;16.70;99.90;;;;;;4900321;28;89894;-45
2023/07/22 12:18:48;;;;;;;8.65;7.72;;;16.70;99.90;;;;;;4888577;28;89808;-35
2023/07/22 12:21:14;;;;;;;9.30;8.40;;;16.80;99.90;;;;;;4899885;28;89282;-32
2023/07/22 12:23:40;;;;;;;9.43;8.52;;;16.80;99.90;;;;;;4901078;28;89099;-39
2023/07/22 12:26:06;;;;;;;10.05;8.93;;;16.80;99.90;;;;;;4899847;28;90075;-42
2023/07/22 12:28:32;;;;;;;9.90;8.43;;;16.80;99.90;;;;;;4900135;28;89226;-39
2023/07/22 12:30:58;;;;;;;9.48;8.38;;;16.70;99.90;;;;;;4900288;28;89845;-39